createdAt,value
2017-09-02T00:00:56.536Z,14.90
2017-09-02T00:03:22.848Z,14.92
2017-09-02T00:05:49.339Z,15.02
2017-09-02T00:08:15.934Z,15.00
2017-09-02T00:10:42.421Z,14.96
2017-09-02T00:13:08.842Z,14.95
2017-09-02T00:15:35.191Z,14.92
2017-09-02T00:18:01.866Z,14.88
2017-09-02T00:20:28.512Z,14.79
2017-09-02T00:22:55.152Z,14.98
2017-09-02T00:25:21.450Z,14.94
2017-09-02T00:27:47.804Z,14.86
2017-09-02T00:30:14.139Z,14.94
2017-09-02T00:32:40.470Z,15.04
2017-09-02T00:35:07.088Z,14.92
2017-09-02T00:37:33.608Z,14.85
2017-09-02T00:40:00.027Z,15.13
2017-09-02T00:42:26.466Z,14.99
2017-09-02T00:44:53.246Z,15.38
2017-09-02T00:47:19.754Z,15.19
2017-09-02T00:49:46.042Z,15.02
2017-09-02T00:52:12.547Z,14.96
2017-09-02T00:54:38.825Z,14.89
2017-09-02T00:57:05.115Z,14.84
2017-09-02T00:59:31.651Z,14.73
2017-09-02T01:01:57.980Z,14.90
2017-09-02T01:04:24.304Z,14.96
2017-09-02T01:06:50.745Z,14.80
2017-09-02T01:09:17.169Z,14.76
2017-09-02T01:11:43.629Z,14.75
2017-09-02T01:14:10.192Z,14.92
2017-09-02T01:16:36.885Z,14.85
2017-09-02T01:19:03.308Z,14.68
2017-09-02T01:21:29.653Z,14.58
2017-09-02T01:23:55.974Z,14.58
2017-09-02T01:26:22.599Z,14.53
2017-09-02T01:28:49.216Z,14.56
2017-09-02T01:31:15.894Z,14.70
2017-09-02T01:33:42.381Z,14.68
2017-09-02T01:36:08.760Z,14.62
2017-09-02T01:38:35.193Z,14.82
2017-09-02T01:41:01.807Z,15.12
2017-09-02T01:43:28.445Z,15.22
2017-09-02T01:45:54.894Z,15.14
2017-09-02T01:48:21.362Z,14.92
2017-09-02T01:50:47.920Z,14.75
2017-09-02T01:53:14.616Z,14.65
2017-09-02T01:55:41.108Z,14.52
2017-09-02T01:58:07.890Z,14.41
2017-09-02T02:00:34.513Z,14.44
2017-09-02T02:03:01.167Z,14.42
2017-09-02T02:05:27.804Z,14.36
2017-09-02T02:07:54.412Z,14.28
2017-09-02T02:10:21.080Z,14.38
2017-09-02T02:12:47.720Z,14.32
2017-09-02T02:15:14.356Z,14.29
2017-09-02T02:17:40.994Z,14.30
2017-09-02T02:20:07.636Z,14.30
2017-09-02T02:22:34.276Z,14.22
2017-09-02T02:25:00.759Z,14.17
2017-09-02T02:27:27.324Z,14.33
2017-09-02T02:29:53.805Z,14.43
2017-09-02T02:32:20.261Z,14.42
2017-09-02T02:34:46.802Z,14.28
2017-09-02T02:37:13.485Z,14.13
2017-09-02T02:39:40.130Z,14.16
2017-09-02T02:42:06.556Z,14.13
2017-09-02T02:44:32.990Z,14.26
2017-09-02T02:46:59.488Z,14.17
2017-09-02T02:49:26.266Z,14.16
2017-09-02T02:51:52.769Z,14.38
2017-09-02T02:54:19.279Z,14.29
2017-09-02T02:56:45.828Z,14.11
2017-09-02T02:59:12.271Z,14.04
2017-09-02T03:01:38.786Z,13.97
2017-09-02T03:04:05.426Z,13.93
2017-09-02T03:06:32.092Z,13.86
2017-09-02T03:08:58.551Z,13.90
2017-09-02T03:11:25.191Z,13.77
2017-09-02T03:13:51.671Z,13.82
2017-09-02T03:16:18.115Z,14.01
2017-09-02T03:18:44.901Z,14.07
2017-09-02T03:21:11.542Z,13.92
2017-09-02T03:23:37.974Z,13.86
2017-09-02T03:26:04.611Z,13.87
2017-09-02T03:28:31.242Z,14.00
2017-09-02T03:30:57.886Z,13.93
2017-09-02T03:33:24.525Z,13.90
2017-09-02T03:35:51.147Z,13.81
2017-09-02T03:38:17.801Z,13.90
2017-09-02T03:40:44.438Z,13.86
2017-09-02T03:43:11.050Z,13.93
2017-09-02T03:45:37.709Z,13.98
2017-09-02T03:48:04.355Z,14.05
2017-09-02T03:50:30.973Z,14.18
2017-09-02T03:52:57.631Z,14.33
2017-09-02T03:55:24.268Z,14.33
2017-09-02T03:57:50.597Z,14.46
2017-09-02T04:00:17.135Z,14.74
2017-09-02T04:02:43.773Z,15.31
2017-09-02T04:05:10.399Z,15.93
2017-09-02T04:07:36.895Z,16.47
2017-09-02T04:10:03.686Z,17.05
2017-09-02T04:12:30.328Z,17.60
2017-09-02T04:14:56.973Z,18.19
2017-09-02T04:17:23.559Z,18.75
2017-09-02T04:19:50.241Z,19.29
2017-09-02T04:22:16.722Z,19.74
2017-09-02T04:24:43.263Z,20.49
2017-09-02T04:27:09.950Z,21.10
2017-09-02T04:29:36.586Z,21.52
2017-09-02T04:32:03.226Z,22.32
2017-09-02T04:34:29.828Z,22.35
2017-09-02T04:36:56.222Z,22.59
2017-09-02T04:39:22.619Z,23.03
2017-09-02T04:41:49.129Z,23.84
2017-09-02T04:44:15.800Z,24.41
2017-09-02T04:46:42.294Z,25.03
2017-09-02T04:49:08.601Z,25.90
2017-09-02T04:51:34.908Z,25.73
2017-09-02T04:54:01.268Z,26.00
2017-09-02T04:56:27.835Z,26.05
2017-09-02T04:58:54.350Z,26.31
2017-09-02T05:01:20.893Z,27.18
2017-09-02T05:03:47.336Z,27.28
2017-09-02T05:06:13.852Z,27.52
2017-09-02T05:08:40.494Z,28.24
2017-09-02T05:11:07.183Z,28.75
2017-09-02T05:13:33.803Z,29.05
2017-09-02T05:16:00.420Z,29.73
2017-09-02T05:18:26.938Z,29.35
2017-09-02T05:20:53.381Z,29.57
2017-09-02T05:23:20.169Z,29.80
2017-09-02T05:25:46.760Z,30.32
2017-09-02T05:28:13.238Z,30.16
2017-09-02T05:30:39.878Z,30.71
2017-09-02T05:33:06.490Z,30.87
2017-09-02T05:35:32.944Z,31.23
2017-09-02T05:37:59.588Z,31.86
2017-09-02T05:40:26.068Z,32.12
2017-09-02T05:42:52.661Z,32.67
2017-09-02T05:45:19.298Z,32.77
2017-09-02T05:47:45.893Z,32.87
2017-09-02T05:50:12.359Z,32.96
2017-09-02T05:52:38.953Z,32.52
2017-09-02T05:55:05.447Z,32.70
2017-09-02T05:57:32.079Z,32.37
2017-09-02T05:59:58.715Z,31.84
2017-09-02T06:02:25.150Z,32.38
2017-09-02T06:04:51.582Z,32.46
2017-09-02T06:07:18.222Z,32.36
2017-09-02T06:09:44.820Z,32.21
2017-09-02T06:12:11.492Z,32.33
2017-09-02T06:14:38.004Z,32.53
2017-09-02T06:17:04.366Z,33.41
2017-09-02T06:19:30.969Z,33.80
2017-09-02T06:21:57.587Z,34.10
2017-09-02T06:24:24.253Z,34.32
2017-09-02T06:26:50.706Z,35.01
2017-09-02T06:29:17.286Z,34.49
2017-09-02T06:31:43.730Z,34.99
2017-09-02T06:34:10.216Z,35.98
2017-09-02T06:36:37.058Z,36.12
2017-09-02T06:39:03.492Z,35.74
2017-09-02T06:41:29.926Z,36.71
2017-09-02T06:43:56.736Z,36.99
2017-09-02T06:46:23.093Z,36.64
2017-09-02T06:48:49.499Z,35.57
2017-09-02T06:51:16.219Z,36.26
2017-09-02T06:53:42.760Z,36.98
2017-09-02T06:56:09.125Z,37.86
2017-09-02T06:58:35.571Z,37.68
2017-09-02T07:01:01.948Z,38.11
2017-09-02T07:03:28.310Z,38.29
2017-09-02T07:05:54.770Z,38.51
2017-09-02T07:08:21.130Z,38.74
2017-09-02T07:10:47.506Z,38.41
2017-09-02T07:13:13.953Z,38.52
2017-09-02T07:15:40.331Z,39.04
2017-09-02T07:18:06.720Z,38.78
2017-09-02T07:20:33.326Z,38.60
2017-09-02T07:23:00.109Z,38.57
2017-09-02T07:25:26.736Z,38.67
2017-09-02T07:27:53.582Z,39.20
2017-09-02T07:30:20.171Z,39.66
2017-09-02T07:32:46.711Z,40.15
2017-09-02T07:35:13.515Z,39.41
2017-09-02T07:37:39.933Z,39.68
2017-09-02T07:40:06.448Z,39.98
2017-09-02T07:42:33.155Z,39.38
2017-09-02T07:44:59.703Z,39.82
2017-09-02T07:47:26.280Z,39.86
2017-09-02T07:49:52.712Z,40.30
2017-09-02T07:52:19.309Z,40.63
2017-09-02T07:54:45.849Z,41.07
2017-09-02T07:57:12.491Z,41.56
2017-09-02T07:59:39.031Z,41.90
2017-09-02T08:02:05.495Z,41.60
2017-09-02T08:04:31.929Z,42.39
2017-09-02T08:06:58.314Z,42.71
2017-09-02T08:09:24.689Z,42.82
2017-09-02T08:11:51.143Z,43.16
2017-09-02T08:14:17.515Z,43.01
2017-09-02T08:16:43.893Z,43.31
2017-09-02T08:19:10.310Z,43.76
2017-09-02T08:21:36.691Z,43.34
2017-09-02T08:24:03.053Z,43.24
2017-09-02T08:26:29.757Z,42.56
2017-09-02T08:28:56.139Z,43.05
2017-09-02T08:31:22.505Z,42.95
2017-09-02T08:33:48.929Z,43.81
2017-09-02T08:36:15.310Z,44.33
2017-09-02T08:38:41.688Z,44.62
2017-09-02T08:41:08.089Z,44.30
2017-09-02T08:43:34.472Z,43.77
2017-09-02T08:46:00.848Z,44.90
2017-09-02T08:48:27.278Z,44.10
2017-09-02T08:50:53.650Z,44.34
2017-09-02T08:53:20.002Z,43.71
2017-09-02T08:55:46.447Z,43.94
2017-09-02T08:58:12.809Z,43.91
2017-09-02T09:00:39.184Z,43.79
2017-09-02T09:03:05.602Z,43.86
2017-09-02T09:05:31.977Z,43.93
2017-09-02T09:07:58.356Z,44.88
2017-09-02T09:10:24.816Z,45.56
2017-09-02T09:12:51.168Z,43.45
2017-09-02T09:15:17.520Z,43.05
2017-09-02T09:17:43.951Z,44.07
2017-09-02T09:20:10.349Z,44.67
2017-09-02T09:22:36.712Z,45.21
2017-09-02T09:25:03.134Z,45.17
2017-09-02T09:27:29.505Z,44.57
2017-09-02T09:29:55.876Z,44.25
2017-09-02T09:32:22.315Z,43.73
2017-09-02T09:34:48.672Z,43.82
2017-09-02T09:37:15.033Z,43.45
2017-09-02T09:39:41.488Z,43.45
2017-09-02T09:42:07.881Z,43.84
2017-09-02T09:44:34.252Z,43.94
2017-09-02T09:47:00.700Z,43.53
2017-09-02T09:49:27.083Z,43.97
2017-09-02T09:51:53.448Z,44.67
2017-09-02T09:54:19.869Z,44.83
2017-09-02T09:56:46.233Z,45.01
2017-09-02T09:59:12.602Z,44.53
2017-09-02T10:01:39.040Z,44.25
2017-09-02T10:04:05.409Z,44.77
2017-09-02T10:06:31.758Z,44.32
2017-09-02T10:08:58.173Z,44.72
2017-09-02T10:11:24.520Z,44.81
2017-09-02T10:13:50.894Z,44.76
2017-09-02T10:16:17.315Z,44.20
2017-09-02T10:18:43.666Z,44.63
2017-09-02T10:21:10.032Z,44.69
2017-09-02T10:23:36.460Z,45.55
2017-09-02T10:26:02.837Z,45.09
2017-09-02T10:28:29.208Z,44.55
2017-09-02T10:30:55.630Z,43.16
2017-09-02T10:33:21.981Z,43.14
2017-09-02T10:35:48.348Z,43.33
2017-09-02T10:38:14.794Z,43.71
2017-09-02T10:40:41.163Z,44.73
2017-09-02T10:43:07.512Z,44.63
2017-09-02T10:45:33.926Z,44.97
2017-09-02T10:48:00.283Z,44.60
2017-09-02T10:50:26.642Z,43.54
2017-09-02T10:52:53.103Z,43.57
2017-09-02T10:55:19.492Z,44.30
2017-09-02T10:57:45.861Z,44.47
2017-09-02T11:00:12.456Z,44.45
2017-09-02T11:02:38.817Z,44.08
2017-09-02T11:05:05.185Z,44.13
2017-09-02T11:07:31.638Z,42.83
2017-09-02T11:09:58.005Z,42.34
2017-09-02T11:12:24.378Z,42.63
2017-09-02T11:14:50.816Z,43.56
2017-09-02T11:17:17.177Z,43.47
2017-09-02T11:19:43.539Z,42.97
2017-09-02T11:22:09.992Z,41.96
2017-09-02T11:24:36.396Z,42.63
2017-09-02T11:27:02.825Z,42.01
2017-09-02T11:29:29.261Z,41.32
2017-09-02T11:31:55.648Z,41.08
2017-09-02T11:34:22.014Z,42.84
2017-09-02T11:36:48.445Z,44.56
2017-09-02T11:39:14.817Z,44.90
2017-09-02T11:41:41.209Z,45.34
2017-09-02T11:44:07.625Z,44.45
2017-09-02T11:46:33.986Z,44.62
2017-09-02T11:49:00.345Z,43.51
2017-09-02T11:51:26.767Z,43.34
2017-09-02T11:53:53.133Z,43.68
2017-09-02T11:56:19.490Z,42.10
2017-09-02T11:58:45.909Z,43.14
2017-09-02T12:01:12.276Z,42.76
2017-09-02T12:03:38.645Z,42.26
2017-09-02T12:06:05.349Z,42.34
2017-09-02T12:08:31.711Z,42.77
2017-09-02T12:10:58.078Z,43.27
2017-09-02T12:13:24.506Z,43.41
2017-09-02T12:15:50.880Z,42.90
2017-09-02T12:18:17.254Z,42.54
2017-09-02T12:20:43.680Z,42.53
2017-09-02T12:23:10.064Z,42.62
2017-09-02T12:25:36.462Z,43.00
2017-09-02T12:28:02.892Z,41.31
2017-09-02T12:30:29.303Z,41.98
2017-09-02T12:32:55.695Z,42.07
2017-09-02T12:35:22.091Z,43.35
2017-09-02T12:37:48.476Z,43.90
2017-09-02T12:40:14.877Z,45.56
2017-09-02T12:42:41.321Z,46.02
2017-09-02T12:45:07.718Z,46.14
2017-09-02T12:47:34.121Z,44.16
2017-09-02T12:50:00.562Z,44.20
2017-09-02T12:52:26.949Z,44.49
2017-09-02T12:54:53.326Z,43.36
2017-09-02T12:57:19.759Z,43.87
2017-09-02T12:59:46.158Z,44.38
2017-09-02T13:02:12.534Z,44.98
2017-09-02T13:04:38.971Z,45.74
2017-09-02T13:07:05.362Z,45.73
2017-09-02T13:09:31.739Z,45.47
2017-09-02T13:11:58.187Z,45.11
2017-09-02T13:14:24.567Z,43.61
2017-09-02T13:16:50.943Z,41.05
2017-09-02T13:19:17.374Z,39.14
2017-09-02T13:21:43.773Z,37.64
2017-09-02T13:24:10.464Z,37.19
2017-09-02T13:26:36.931Z,36.55
2017-09-02T13:29:03.570Z,36.59
2017-09-02T13:31:30.170Z,36.56
2017-09-02T13:33:56.789Z,36.37
2017-09-02T13:36:23.552Z,36.22
2017-09-02T13:38:50.071Z,35.97
2017-09-02T13:41:16.713Z,35.95
2017-09-02T13:43:43.479Z,35.91
2017-09-02T13:46:09.935Z,35.72
2017-09-02T13:48:36.741Z,35.72
2017-09-02T13:51:03.259Z,35.61
2017-09-02T13:53:30.025Z,35.44
2017-09-02T13:55:56.642Z,35.18
2017-09-02T13:58:23.185Z,35.36
2017-09-02T14:00:49.950Z,35.47
2017-09-02T14:03:16.389Z,35.42
2017-09-02T14:05:42.826Z,35.29
2017-09-02T14:08:09.452Z,35.28
2017-09-02T14:10:36.296Z,35.16
2017-09-02T14:13:02.816Z,35.05
2017-09-02T14:15:29.192Z,35.01
2017-09-02T14:17:55.820Z,34.83
2017-09-02T14:20:22.249Z,34.81
2017-09-02T14:22:48.731Z,34.79
2017-09-02T14:25:15.312Z,34.83
2017-09-02T14:27:41.764Z,34.88
2017-09-02T14:30:08.132Z,34.90
2017-09-02T14:32:34.599Z,34.93
2017-09-02T14:35:00.964Z,34.93
2017-09-02T14:37:27.337Z,34.90
2017-09-02T14:39:53.814Z,34.88
2017-09-02T14:42:20.191Z,34.77
2017-09-02T14:44:46.540Z,34.71
2017-09-02T14:47:12.957Z,34.63
2017-09-02T14:49:39.318Z,34.53
2017-09-02T14:52:05.708Z,34.50
2017-09-02T14:54:32.144Z,34.28
2017-09-02T14:56:58.527Z,34.37
2017-09-02T14:59:24.881Z,34.36
2017-09-02T15:01:51.410Z,34.29
2017-09-02T15:04:17.846Z,34.20
2017-09-02T15:06:44.324Z,34.21
2017-09-02T15:09:10.964Z,34.20
2017-09-02T15:11:37.759Z,34.07
2017-09-02T15:14:04.185Z,33.98
2017-09-02T15:16:30.611Z,33.97
2017-09-02T15:18:57.058Z,33.90
2017-09-02T15:21:23.648Z,33.92
2017-09-02T15:23:50.320Z,33.85
2017-09-02T15:26:16.731Z,33.70
2017-09-02T15:28:43.254Z,33.71
2017-09-02T15:31:09.899Z,33.54
2017-09-02T15:33:36.704Z,33.43
2017-09-02T15:36:03.128Z,33.34
2017-09-02T15:38:29.755Z,33.19
2017-09-02T15:40:56.200Z,33.03
2017-09-02T15:43:22.486Z,32.97
2017-09-02T15:45:49.262Z,32.80
2017-09-02T15:48:15.868Z,32.80
2017-09-02T15:50:42.389Z,32.77
2017-09-02T15:53:08.971Z,32.80
2017-09-02T15:55:35.299Z,32.74
2017-09-02T15:58:01.839Z,32.61
2017-09-02T16:00:28.654Z,32.47
2017-09-02T16:02:55.319Z,32.38
2017-09-02T16:05:21.749Z,32.25
2017-09-02T16:07:48.388Z,32.11
2017-09-02T16:10:14.994Z,31.91
2017-09-02T16:12:41.668Z,31.73
2017-09-02T16:15:08.261Z,31.58
2017-09-02T16:17:34.541Z,31.40
2017-09-02T16:20:01.145Z,31.20
2017-09-02T16:22:27.497Z,30.96
2017-09-02T16:24:53.976Z,30.62
2017-09-02T16:27:20.271Z,30.38
2017-09-02T16:29:46.903Z,30.08
2017-09-02T16:32:13.336Z,29.81
2017-09-02T16:34:39.767Z,29.51
2017-09-02T16:37:06.199Z,29.34
2017-09-02T16:39:32.536Z,29.15
2017-09-02T16:41:58.863Z,28.91
2017-09-02T16:44:25.286Z,28.70
2017-09-02T16:46:51.936Z,28.45
2017-09-02T16:49:18.552Z,28.24
2017-09-02T16:51:44.989Z,28.10
2017-09-02T16:54:11.425Z,28.03
2017-09-02T16:56:37.958Z,27.93
2017-09-02T16:59:04.508Z,27.79
2017-09-02T17:01:30.991Z,27.67
2017-09-02T17:03:57.361Z,27.46
2017-09-02T17:06:24.012Z,27.14
2017-09-02T17:08:50.619Z,26.80
2017-09-02T17:11:17.286Z,26.52
2017-09-02T17:13:43.716Z,26.27
2017-09-02T17:16:10.153Z,26.00
2017-09-02T17:18:36.590Z,25.87
2017-09-02T17:21:03.026Z,25.65
2017-09-02T17:23:29.303Z,25.48
2017-09-02T17:25:55.599Z,25.29
2017-09-02T17:28:22.182Z,25.12
2017-09-02T17:30:48.600Z,24.95
2017-09-02T17:33:14.877Z,24.81
2017-09-02T17:35:41.608Z,24.56
2017-09-02T17:38:08.126Z,24.49
2017-09-02T17:40:34.524Z,24.40
2017-09-02T17:43:00.924Z,24.33
2017-09-02T17:45:27.566Z,24.22
2017-09-02T17:47:53.993Z,24.22
2017-09-02T17:50:20.386Z,24.15
2017-09-02T17:52:46.859Z,24.11
2017-09-02T17:55:13.276Z,23.93
2017-09-02T17:57:39.710Z,23.92
2017-09-02T18:00:06.148Z,23.88
2017-09-02T18:02:32.428Z,23.86
2017-09-02T18:04:58.756Z,23.78
2017-09-02T18:07:25.048Z,23.77
2017-09-02T18:09:51.372Z,23.82
2017-09-02T18:12:17.965Z,23.74
2017-09-02T18:14:44.257Z,23.63
2017-09-02T18:17:10.579Z,23.55
2017-09-02T18:19:37.166Z,23.50
2017-09-02T18:22:03.607Z,23.37
2017-09-02T18:24:30.274Z,23.32
2017-09-02T18:26:56.923Z,23.29
2017-09-02T18:29:23.212Z,23.25
2017-09-02T18:31:49.774Z,23.18
2017-09-02T18:34:16.222Z,23.10
2017-09-02T18:36:42.517Z,23.02
2017-09-02T18:39:08.809Z,22.99
2017-09-02T18:41:35.177Z,22.89
2017-09-02T18:44:01.461Z,22.84
2017-09-02T18:46:27.760Z,22.81
2017-09-02T18:48:54.111Z,22.88
2017-09-02T18:51:20.417Z,22.78
2017-09-02T18:53:46.736Z,22.71
2017-09-02T18:56:13.083Z,22.70
2017-09-02T18:58:39.361Z,22.67
2017-09-02T19:01:05.663Z,22.62
2017-09-02T19:03:32.372Z,22.53
2017-09-02T19:05:59.033Z,22.58
2017-09-02T19:08:25.321Z,22.60
2017-09-02T19:10:51.978Z,22.54
2017-09-02T19:13:18.362Z,22.57
2017-09-02T19:15:44.841Z,22.45
2017-09-02T19:18:11.207Z,22.24
2017-09-02T19:20:37.525Z,22.17
2017-09-02T19:23:03.937Z,22.05
2017-09-02T19:25:30.428Z,22.07
2017-09-02T19:27:57.844Z,22.05
2017-09-02T19:30:24.278Z,22.03
2017-09-02T19:32:50.848Z,21.90
2017-09-02T19:35:17.157Z,21.83
2017-09-02T19:37:43.462Z,21.87
2017-09-02T19:40:09.817Z,21.67
2017-09-02T19:42:36.126Z,21.78
2017-09-02T19:45:02.446Z,21.76
2017-09-02T19:47:28.811Z,21.83
2017-09-02T19:49:55.109Z,21.77
2017-09-02T19:52:21.682Z,21.80
2017-09-02T19:54:48.116Z,21.86
2017-09-02T19:57:14.431Z,21.92
2017-09-02T19:59:40.718Z,21.99
2017-09-02T20:02:07.067Z,21.89
2017-09-02T20:04:33.357Z,21.96
2017-09-02T20:06:59.650Z,22.00
2017-09-02T20:09:26.018Z,21.90
2017-09-02T20:11:52.328Z,21.86
2017-09-02T20:14:18.630Z,21.88
2017-09-02T20:16:44.996Z,21.80
2017-09-02T20:19:11.284Z,21.78
2017-09-02T20:21:37.585Z,21.74
2017-09-02T20:24:03.951Z,21.77
2017-09-02T20:26:30.235Z,21.86
2017-09-02T20:28:56.558Z,21.90
2017-09-02T20:31:22.939Z,21.95
2017-09-02T20:33:49.235Z,22.02
2017-09-02T20:36:15.529Z,22.32
2017-09-02T20:38:41.901Z,22.39
2017-09-02T20:41:08.196Z,22.98
2017-09-02T20:43:34.497Z,23.38
2017-09-02T20:46:00.857Z,23.75
2017-09-02T20:48:27.184Z,24.00
2017-09-02T20:50:53.487Z,24.16
2017-09-02T20:53:19.862Z,24.62
2017-09-02T20:55:46.167Z,24.76
2017-09-02T20:58:12.464Z,24.95
2017-09-02T21:00:38.772Z,25.18
2017-09-02T21:03:05.071Z,25.48
2017-09-02T21:05:31.377Z,25.55
2017-09-02T21:07:57.686Z,25.42
2017-09-02T21:10:24.067Z,25.27
2017-09-02T21:12:50.349Z,25.17
2017-09-02T21:15:16.751Z,24.97
2017-09-02T21:17:43.063Z,24.70
2017-09-02T21:20:09.366Z,24.67
2017-09-02T21:22:35.720Z,24.58
2017-09-02T21:25:02.000Z,25.18
2017-09-02T21:27:28.289Z,25.52
2017-09-02T21:29:54.648Z,26.21
2017-09-02T21:32:20.956Z,26.50
2017-09-02T21:34:47.243Z,26.57
2017-09-02T21:37:13.602Z,26.97
2017-09-02T21:39:39.912Z,26.98
2017-09-02T21:42:06.208Z,26.96
2017-09-02T21:44:32.566Z,27.09
2017-09-02T21:46:58.883Z,27.35
2017-09-02T21:49:25.149Z,27.45
2017-09-02T21:51:51.496Z,27.54
2017-09-02T21:54:17.795Z,27.47
2017-09-02T21:56:44.080Z,27.45
2017-09-02T21:59:10.445Z,27.50
2017-09-02T22:01:36.759Z,27.56
2017-09-02T22:04:03.063Z,27.56
2017-09-02T22:06:29.441Z,27.43
2017-09-02T22:08:55.738Z,27.43
2017-09-02T22:11:22.041Z,27.50
2017-09-02T22:13:48.372Z,27.48
2017-09-02T22:16:14.681Z,27.46
2017-09-02T22:18:40.969Z,27.39
2017-09-02T22:21:07.323Z,27.35
2017-09-02T22:23:33.616Z,27.25
2017-09-02T22:25:59.911Z,27.28
2017-09-02T22:28:26.257Z,27.24
2017-09-02T22:30:52.549Z,27.32
2017-09-02T22:33:18.846Z,27.30
2017-09-02T22:35:45.210Z,27.28
2017-09-02T22:38:11.520Z,27.23
2017-09-02T22:40:37.828Z,27.18
2017-09-02T22:43:04.185Z,27.16
2017-09-02T22:45:30.501Z,27.12
2017-09-02T22:47:56.811Z,27.10
2017-09-02T22:50:23.166Z,27.11
2017-09-02T22:52:49.480Z,27.14
2017-09-02T22:55:15.785Z,27.20
2017-09-02T22:57:42.139Z,27.24
2017-09-02T23:00:08.429Z,27.15
2017-09-02T23:02:34.735Z,27.14
2017-09-02T23:05:01.140Z,27.15
2017-09-02T23:07:27.456Z,27.09
2017-09-02T23:09:53.771Z,26.99
2017-09-02T23:12:20.119Z,26.99
2017-09-02T23:14:46.413Z,26.95
2017-09-02T23:17:12.710Z,26.79
2017-09-02T23:19:39.062Z,26.83
2017-09-02T23:22:05.375Z,26.85
2017-09-02T23:24:31.681Z,26.74
2017-09-02T23:26:58.030Z,26.77
2017-09-02T23:29:24.325Z,26.75
2017-09-02T23:31:50.632Z,26.83
2017-09-02T23:34:17.282Z,26.76
2017-09-02T23:36:43.567Z,26.80
2017-09-02T23:39:09.996Z,26.75
2017-09-02T23:41:36.357Z,26.76
2017-09-02T23:44:04.235Z,26.71
2017-09-02T23:46:30.539Z,26.72
2017-09-02T23:48:56.905Z,26.62
2017-09-02T23:51:23.208Z,26.58
2017-09-02T23:53:49.520Z,26.61
2017-09-02T23:56:15.879Z,26.66
2017-09-02T23:58:42.184Z,26.68
